createdAt,value
2019-01-09T00:01:38.073Z,100948.20
2019-01-09T00:04:09.056Z,100943.05
2019-01-09T00:06:39.558Z,100939.17
2019-01-09T00:09:10.105Z,100940.48
2019-01-09T00:11:40.817Z,100940.05
2019-01-09T00:14:11.304Z,100937.02
2019-01-09T00:16:41.809Z,100946.89
2019-01-09T00:19:12.257Z,100954.20
2019-01-09T00:21:42.802Z,100955.92
2019-01-09T00:24:13.252Z,100948.18
2019-01-09T00:26:43.727Z,100936.59
2019-01-09T00:29:14.295Z,100925.02
2019-01-09T00:31:44.750Z,100922.88
2019-01-09T00:34:15.534Z,100923.30
2019-01-09T00:36:46.059Z,100906.13
2019-01-09T00:39:16.525Z,100904.42
2019-01-09T00:41:46.990Z,100901.40
2019-01-09T00:44:18.027Z,100917.73
2019-01-09T00:46:48.542Z,100921.14
2019-01-09T00:49:19.033Z,100925.45
2019-01-09T00:51:49.580Z,100934.88
2019-01-09T00:54:20.039Z,100939.61
2019-01-09T00:56:50.963Z,100920.70
2019-01-09T00:59:40.651Z,100921.56
2019-01-09T01:03:08.523Z,100931.44
2019-01-09T01:06:17.334Z,100932.32
2019-01-09T01:09:45.285Z,100927.61
2019-01-09T01:13:06.680Z,100940.03
2019-01-09T01:16:40.172Z,100943.48
2019-01-09T01:19:32.826Z,100944.75
2019-01-09T01:22:28.958Z,100942.20
2019-01-09T01:25:49.641Z,100946.06
2019-01-09T01:29:23.449Z,100944.33
2019-01-09T01:32:47.099Z,100942.59
2019-01-09T01:36:12.981Z,100940.89
2019-01-09T01:39:01.185Z,100940.90
2019-01-09T01:42:29.150Z,100946.46
2019-01-09T01:45:57.149Z,100953.36
2019-01-09T01:48:58.461Z,100957.66
2019-01-09T01:52:26.161Z,100949.92
2019-01-09T01:55:15.600Z,100947.77
2019-01-09T01:58:43.601Z,100945.61
2019-01-09T02:01:45.107Z,100945.63
2019-01-09T02:05:12.836Z,100943.05
2019-01-09T02:08:14.421Z,100946.48
2019-01-09T02:11:29.261Z,100943.89
2019-01-09T02:14:36.591Z,100950.77
2019-01-09T02:18:04.583Z,100953.34
2019-01-09T02:21:06.545Z,100960.19
2019-01-09T02:28:16.106Z,100970.92
2019-01-09T02:31:10.902Z,100976.09
2019-01-09T02:33:41.644Z,100967.08
2019-01-09T02:36:13.601Z,100971.34
2019-01-09T02:38:44.331Z,100978.66
2019-01-09T02:41:14.839Z,100999.23
2019-01-09T02:43:45.346Z,100991.94
2019-01-09T02:46:15.797Z,100989.80
2019-01-09T02:48:48.525Z,100992.80
2019-01-09T02:51:19.081Z,100987.23
2019-01-09T02:53:49.836Z,100990.64
2019-01-09T02:56:20.332Z,100990.66
2019-01-09T02:58:50.814Z,100994.52
2019-01-09T03:01:21.310Z,100993.63
2019-01-09T03:03:51.799Z,100991.50
2019-01-09T03:06:23.140Z,100988.05
2019-01-09T03:08:53.978Z,100989.77
2019-01-09T03:11:24.776Z,100990.65
2019-01-09T03:13:55.253Z,100990.64
2019-01-09T03:16:25.738Z,100983.75
2019-01-09T03:18:56.246Z,100986.33
2019-01-09T03:21:26.723Z,100992.77
2019-01-09T03:23:57.223Z,100993.17
2019-01-09T03:26:27.728Z,100995.31
2019-01-09T03:28:58.211Z,100994.87
2019-01-09T03:31:28.749Z,100993.15
2019-01-09T03:33:59.324Z,100991.84
2019-01-09T03:36:33.022Z,100998.69
2019-01-09T03:39:02.574Z,100988.41
2019-01-09T03:41:33.382Z,100989.67
2019-01-09T03:44:03.866Z,100993.55
2019-01-09T03:46:34.363Z,100993.10
2019-01-09T03:49:05.028Z,100996.55
2019-01-09T03:51:35.516Z,100990.13
2019-01-09T03:54:06.028Z,100994.84
2019-01-09T03:56:36.522Z,100988.88
2019-01-09T03:59:07.555Z,100984.53
2019-01-09T04:01:38.036Z,100982.41
2019-01-09T04:04:08.537Z,100987.53
2019-01-09T04:06:42.065Z,100982.40
2019-01-09T04:09:11.231Z,100980.20
2019-01-09T04:11:41.746Z,100977.64
2019-01-09T04:14:12.249Z,100981.06
2019-01-09T04:16:42.835Z,100968.64
2019-01-09T04:19:13.837Z,100979.77
2019-01-09T04:21:44.344Z,100976.77
2019-01-09T04:24:14.835Z,100985.37
2019-01-09T04:26:45.350Z,100979.78
2019-01-09T04:29:15.813Z,100972.06
2019-01-09T04:31:46.292Z,100972.91
2019-01-09T04:34:17.058Z,100972.92
2019-01-09T04:36:51.820Z,100973.36
2019-01-09T04:39:20.422Z,100974.62
2019-01-09T04:41:50.925Z,100963.05
2019-01-09T04:44:21.644Z,100968.19
2019-01-09T04:46:52.370Z,100969.02
2019-01-09T04:49:22.869Z,100970.70
2019-01-09T04:51:53.362Z,100968.59
2019-01-09T04:54:24.118Z,100971.55
2019-01-09T04:56:54.689Z,100973.71
2019-01-09T04:59:25.397Z,100976.27
2019-01-09T05:01:55.868Z,100976.70
2019-01-09T05:04:26.686Z,100975.83
2019-01-09T05:07:00.728Z,100981.83
2019-01-09T05:09:29.589Z,100972.00
2019-01-09T05:12:00.129Z,100970.72
2019-01-09T05:14:30.601Z,100974.56
2019-01-09T05:17:01.328Z,100982.69
2019-01-09T05:19:31.837Z,100979.67
2019-01-09T05:22:02.585Z,100982.67
2019-01-09T05:25:11.448Z,100982.19
2019-01-09T05:27:53.681Z,100986.50
2019-01-09T05:30:24.161Z,100989.48
2019-01-09T05:32:54.894Z,100990.36
2019-01-09T05:36:03.391Z,100993.81
2019-01-09T05:38:46.017Z,100987.36
2019-01-09T05:41:54.510Z,100989.95
2019-01-09T05:44:36.876Z,100981.83
2019-01-09T05:47:45.371Z,100983.92
2019-01-09T05:50:27.730Z,100976.66
2019-01-09T05:53:17.688Z,100980.54
2019-01-09T05:55:59.643Z,100977.09
2019-01-09T05:58:30.158Z,100977.94
2019-01-09T06:04:20.625Z,100974.94
2019-01-09T06:07:02.695Z,100978.73
2019-01-09T06:09:52.343Z,100979.16
2019-01-09T06:12:41.930Z,100974.88
2019-01-09T06:15:31.529Z,100976.98
2019-01-09T06:18:13.917Z,100982.13
2019-01-09T06:21:03.527Z,100990.22
2019-01-09T06:23:45.872Z,100987.71
2019-01-09T06:26:54.406Z,100998.80
2019-01-09T06:29:36.617Z,100992.77
2019-01-09T06:32:26.954Z,100997.45
2019-01-09T06:35:08.967Z,100998.74
2019-01-09T06:37:58.560Z,101004.33
2019-01-09T06:40:41.142Z,101002.59
2019-01-09T06:43:11.648Z,101004.69
2019-01-09T06:45:42.401Z,101007.22
2019-01-09T06:48:13.002Z,101013.64
2019-01-09T06:50:43.510Z,101023.12
2019-01-09T06:53:14.290Z,101033.39
2019-01-09T06:55:44.724Z,101036.89
2019-01-09T06:58:15.202Z,101022.82
2019-01-09T07:00:45.942Z,101023.23
2019-01-09T07:03:16.412Z,101023.69
2019-01-09T07:05:46.908Z,101025.36
2019-01-09T07:08:17.685Z,101033.46
2019-01-09T07:10:48.149Z,101033.01
2019-01-09T07:13:18.695Z,101032.98
2019-01-09T07:15:49.404Z,101038.12
2019-01-09T07:18:19.894Z,101039.41
2019-01-09T07:20:50.659Z,101047.11
2019-01-09T07:23:21.107Z,101052.22
2019-01-09T07:25:51.570Z,101052.62
2019-01-09T07:28:22.071Z,101054.36
2019-01-09T07:30:52.538Z,101060.33
2019-01-09T07:33:23.338Z,101059.05
2019-01-09T07:35:53.862Z,101063.32
2019-01-09T07:38:24.339Z,101067.21
2019-01-09T07:40:54.892Z,101071.48
2019-01-09T07:43:25.385Z,101065.96
2019-01-09T07:45:56.116Z,101068.15
2019-01-09T07:48:26.589Z,101069.85
2019-01-09T07:50:57.095Z,101067.70
2019-01-09T07:53:27.594Z,101068.19
2019-01-09T07:55:58.171Z,101074.16
2019-01-09T07:58:28.939Z,101069.92
2019-01-09T08:00:59.412Z,101085.34
2019-01-09T08:03:29.908Z,101081.52
2019-01-09T08:06:00.383Z,101084.92
2019-01-09T08:08:30.848Z,101084.08
2019-01-09T08:11:01.633Z,101087.11
2019-01-09T08:13:32.364Z,101085.41
2019-01-09T08:16:02.824Z,101087.17
2019-01-09T08:18:33.303Z,101090.19
2019-01-09T08:21:05.424Z,101088.09
2019-01-09T08:23:36.005Z,101097.23
2019-01-09T08:26:06.468Z,101093.42
2019-01-09T08:28:37.201Z,101101.63
2019-01-09T08:31:07.784Z,101102.16
2019-01-09T08:33:38.252Z,101109.11
2019-01-09T08:36:08.726Z,101108.27
2019-01-09T08:38:39.251Z,101110.85
2019-01-09T08:41:09.895Z,101121.12
2019-01-09T08:43:40.907Z,101135.25
2019-01-09T08:46:11.441Z,101137.40
2019-01-09T08:48:41.919Z,101141.66
2019-01-09T08:51:12.557Z,101142.93
2019-01-09T08:53:43.028Z,101145.48
2019-01-09T08:56:13.494Z,101147.66
2019-01-09T08:58:44.008Z,101146.89
2019-01-09T09:01:14.472Z,101147.02
2019-01-09T09:03:44.925Z,101159.90
2019-01-09T09:06:15.658Z,101153.52
2019-01-09T09:08:46.516Z,101155.66
2019-01-09T09:11:16.993Z,101160.38
2019-01-09T09:13:47.451Z,101162.48
2019-01-09T09:16:18.180Z,101170.98
2019-01-09T09:18:48.623Z,101169.17
2019-01-09T09:21:19.114Z,101173.84
2019-01-09T09:23:49.810Z,101176.65
2019-01-09T09:26:20.257Z,101171.94
2019-01-09T09:28:50.739Z,101173.42
2019-01-09T09:31:21.201Z,101174.32
2019-01-09T09:33:51.648Z,101174.95
2019-01-09T09:36:22.400Z,101173.63
2019-01-09T09:38:52.848Z,101178.79
2019-01-09T09:41:23.566Z,101173.76
2019-01-09T09:43:54.033Z,101176.30
2019-01-09T09:46:24.644Z,101181.88
2019-01-09T09:48:55.843Z,101183.78
2019-01-09T09:51:26.543Z,101181.71
2019-01-09T09:53:57.250Z,101194.95
2019-01-09T09:56:27.668Z,101191.08
2019-01-09T09:58:58.151Z,101185.14
2019-01-09T10:01:28.609Z,101181.63
2019-01-09T10:03:59.060Z,101176.98
2019-01-09T10:06:29.549Z,101167.28
2019-01-09T10:09:00.013Z,101170.88
2019-01-09T10:11:31.047Z,101173.69
2019-01-09T10:14:01.791Z,101168.80
2019-01-09T10:16:32.226Z,101167.69
2019-01-09T10:19:03.231Z,101177.23
2019-01-09T10:21:33.712Z,101176.27
2019-01-09T10:24:04.185Z,101180.30
2019-01-09T10:26:34.655Z,101180.34
2019-01-09T10:29:05.171Z,101179.36
2019-01-09T10:31:35.695Z,101179.98
2019-01-09T10:34:06.393Z,101173.70
2019-01-09T10:36:37.152Z,101181.53
2019-01-09T10:39:10.424Z,101187.40
2019-01-09T10:41:41.158Z,101183.65
2019-01-09T10:44:18.808Z,101183.41
2019-01-09T10:46:44.031Z,101176.58
2019-01-09T10:49:14.511Z,101184.71
2019-01-09T10:51:44.988Z,101182.51
2019-01-09T10:54:15.468Z,101181.83
2019-01-09T10:56:45.934Z,101178.08
2019-01-09T10:59:16.446Z,101184.56
2019-01-09T11:01:47.180Z,101183.34
2019-01-09T11:04:17.892Z,101185.91
2019-01-09T11:06:48.643Z,101185.20
2019-01-09T11:09:19.140Z,101179.50
2019-01-09T11:11:49.651Z,101181.88
2019-01-09T11:14:20.111Z,101180.27
2019-01-09T11:16:50.595Z,101178.94
2019-01-09T11:19:21.306Z,101175.95
2019-01-09T11:21:51.783Z,101177.22
2019-01-09T11:24:22.265Z,101179.50
2019-01-09T11:26:52.710Z,101180.55
2019-01-09T11:29:23.439Z,101171.69
2019-01-09T11:31:54.024Z,101170.71
2019-01-09T11:34:24.531Z,101170.34
2019-01-09T11:36:54.983Z,101167.54
2019-01-09T11:39:25.487Z,101168.11
2019-01-09T11:41:56.495Z,101159.05
2019-01-09T11:44:27.192Z,101168.95
2019-01-09T11:46:57.658Z,101162.50
2019-01-09T11:49:28.351Z,101158.34
2019-01-09T11:51:58.858Z,101153.85
2019-01-09T11:54:29.330Z,101146.52
2019-01-09T11:56:59.793Z,101150.03
2019-01-09T11:59:30.527Z,101151.99
2019-01-09T12:02:01.246Z,101150.44
2019-01-09T12:04:31.735Z,101147.30
2019-01-09T12:07:02.742Z,101150.30
2019-01-09T12:09:33.208Z,101146.27
2019-01-09T12:12:03.674Z,101142.02
2019-01-09T12:14:34.135Z,101140.91
2019-01-09T12:17:04.584Z,101141.44
2019-01-09T12:19:35.040Z,101142.28
2019-01-09T12:22:05.634Z,101139.44
2019-01-09T12:24:36.369Z,101138.47
2019-01-09T12:27:06.831Z,101149.63
2019-01-09T12:29:37.326Z,101141.52
2019-01-09T12:32:07.784Z,101141.16
2019-01-09T12:34:38.247Z,101144.76
2019-01-09T12:37:08.725Z,101149.58
2019-01-09T12:39:39.441Z,101153.84
2019-01-09T12:42:09.893Z,101151.73
2019-01-09T12:44:40.391Z,101161.25
2019-01-09T12:47:11.107Z,101161.32
2019-01-09T12:49:41.571Z,101154.44
2019-01-09T12:52:12.061Z,101147.59
2019-01-09T12:54:42.622Z,101160.11
2019-01-09T12:57:13.281Z,101155.45
2019-01-09T12:59:43.919Z,101158.06
2019-01-09T13:02:14.856Z,101164.97
2019-01-09T13:04:45.473Z,101163.23
2019-01-09T13:07:16.468Z,101164.97
2019-01-09T13:09:47.108Z,101173.97
2019-01-09T13:12:17.789Z,101161.53
2019-01-09T13:14:48.641Z,101168.41
2019-01-09T13:17:19.309Z,101167.95
2019-01-09T13:19:50.047Z,101173.99
2019-01-09T13:22:20.824Z,101188.22
2019-01-09T13:24:52.315Z,101176.17
2019-01-09T13:27:23.027Z,101178.31
2019-01-09T13:29:53.695Z,101189.94
2019-01-09T13:32:24.917Z,101187.76
2019-01-09T13:34:55.517Z,101182.96
2019-01-09T13:37:26.401Z,101178.44
2019-01-09T13:40:17.691Z,101190.38
2019-01-09T13:43:00.101Z,101197.19
2019-01-09T13:45:42.556Z,101197.69
2019-01-09T13:48:32.441Z,101205.58
2019-01-09T13:51:14.827Z,101203.42
2019-01-09T13:57:12.319Z,101193.13
2019-01-09T14:00:01.991Z,101205.66
2019-01-09T14:02:45.165Z,101196.11
2019-01-09T14:08:36.183Z,101211.20
2019-01-09T14:11:25.835Z,101213.44
2019-01-09T14:14:07.924Z,101224.11
2019-01-09T14:16:57.764Z,101211.27
2019-01-09T14:19:40.202Z,101224.23
2019-01-09T14:22:33.114Z,101220.41
2019-01-09T14:25:13.494Z,101233.79
2019-01-09T14:28:03.214Z,101230.41
2019-01-09T14:30:45.583Z,101225.23
2019-01-09T14:33:16.050Z,101241.18
2019-01-09T14:36:06.011Z,101234.72
2019-01-09T14:38:48.004Z,101237.74
2019-01-09T14:41:37.612Z,101229.11
2019-01-09T14:44:19.867Z,101239.45
2019-01-09T14:47:03.350Z,101248.48
2019-01-09T14:49:52.972Z,101245.91
2019-01-09T14:52:35.181Z,101238.59
2019-01-09T14:55:06.539Z,101244.63
2019-01-09T14:57:37.133Z,101244.22
2019-01-09T15:00:12.800Z,101242.47
2019-01-09T15:02:43.513Z,101250.22
2019-01-09T15:05:14.578Z,101245.50
2019-01-09T15:07:45.170Z,101251.95
2019-01-09T15:10:24.323Z,101259.73
2019-01-09T15:12:55.356Z,101266.19
2019-01-09T15:15:25.821Z,101273.52
2019-01-09T15:17:56.276Z,101280.41
2019-01-09T15:20:26.767Z,101282.56
2019-01-09T15:22:57.240Z,101284.70
2019-01-09T15:25:27.732Z,101294.15
2019-01-09T15:27:58.478Z,101284.20
2019-01-09T15:30:31.567Z,101299.69
2019-01-09T15:33:02.297Z,101281.19
2019-01-09T15:35:33.104Z,101291.47
2019-01-09T15:38:03.818Z,101287.19
2019-01-09T15:40:34.287Z,101293.20
2019-01-09T15:43:04.776Z,101291.47
2019-01-09T15:45:35.230Z,101300.02
2019-01-09T15:48:05.894Z,101297.03
2019-01-09T15:50:36.399Z,101307.34
2019-01-09T15:53:06.964Z,101298.31
2019-01-09T15:55:37.492Z,101307.30
2019-01-09T15:58:08.303Z,101305.14
2019-01-09T16:00:42.876Z,101316.30
2019-01-09T16:03:13.640Z,101321.44
2019-01-09T16:05:45.722Z,101317.14
2019-01-09T16:08:16.358Z,101320.06
2019-01-09T16:10:46.849Z,101325.22
2019-01-09T16:13:17.302Z,101327.38
2019-01-09T16:15:48.036Z,101322.18
2019-01-09T16:18:18.814Z,101325.57
2019-01-09T16:20:49.378Z,101328.98
2019-01-09T16:23:20.171Z,101328.55
2019-01-09T16:25:50.675Z,101337.14
2019-01-09T16:28:21.151Z,101340.58
2019-01-09T16:31:23.260Z,101341.03
2019-01-09T16:33:53.738Z,101344.47
2019-01-09T16:36:24.760Z,101353.48
2019-01-09T16:38:55.228Z,101344.50
2019-01-09T16:41:25.954Z,101359.03
2019-01-09T16:43:56.408Z,101347.44
2019-01-09T16:46:26.897Z,101341.00
2019-01-09T16:48:57.685Z,101350.85
2019-01-09T16:51:28.133Z,101352.15
2019-01-09T16:53:58.613Z,101350.34
2019-01-09T16:56:29.385Z,101354.66
2019-01-09T16:58:59.861Z,101361.06
2019-01-09T17:01:30.352Z,101361.91
2019-01-09T17:04:01.143Z,101367.09
2019-01-09T17:06:31.598Z,101365.35
2019-01-09T17:09:02.637Z,101368.34
2019-01-09T17:11:33.116Z,101374.81
2019-01-09T17:14:03.638Z,101366.64
2019-01-09T17:16:34.440Z,101377.81
2019-01-09T17:19:05.209Z,101383.80
2019-01-09T17:21:35.715Z,101381.25
2019-01-09T17:24:06.291Z,101388.11
2019-01-09T17:26:36.966Z,101387.72
2019-01-09T17:29:07.420Z,101394.20
2019-01-09T17:31:37.991Z,101393.74
2019-01-09T17:34:08.485Z,101402.76
2019-01-09T17:36:38.967Z,101399.34
2019-01-09T17:39:10.106Z,101403.56
2019-01-09T17:41:40.601Z,101410.83
2019-01-09T17:44:11.121Z,101414.23
2019-01-09T17:46:41.610Z,101417.20
2019-01-09T17:49:12.364Z,101424.96
2019-01-09T17:51:42.818Z,101430.94
2019-01-09T17:54:13.324Z,101426.17
2019-01-09T17:56:44.110Z,101427.83
2019-01-09T17:59:14.601Z,101424.38
2019-01-09T18:01:45.085Z,101421.81
2019-01-09T18:04:15.545Z,101434.64
2019-01-09T18:06:46.293Z,101438.05
2019-01-09T18:09:16.888Z,101441.45
2019-01-09T18:11:47.372Z,101439.66
2019-01-09T18:14:18.224Z,101450.41
2019-01-09T18:16:48.735Z,101459.83
2019-01-09T18:19:19.487Z,101456.74
2019-01-09T18:21:49.951Z,101454.13
2019-01-09T18:24:20.456Z,101470.86
2019-01-09T18:26:50.911Z,101463.14
2019-01-09T18:29:21.650Z,101476.00
2019-01-09T18:32:17.393Z,101475.17
2019-01-09T18:35:18.813Z,101473.89
2019-01-09T18:38:33.531Z,101480.73
2019-01-09T18:41:52.894Z,101485.88
2019-01-09T18:45:33.060Z,101480.73
2019-01-09T18:49:05.086Z,101485.05
2019-01-09T18:52:36.957Z,101494.88
2019-01-09T18:55:08.701Z,101495.77
2019-01-09T18:57:39.171Z,101497.81
2019-01-09T19:00:16.590Z,101498.33
2019-01-09T19:02:49.746Z,101490.16
2019-01-09T19:05:20.222Z,101511.98
2019-01-09T19:07:50.740Z,101514.59
2019-01-09T19:10:40.372Z,101516.35
2019-01-09T19:13:22.482Z,101524.89
2019-01-09T19:15:52.977Z,101514.64
2019-01-09T19:18:23.752Z,101523.65
2019-01-09T19:20:54.223Z,101515.42
2019-01-09T19:23:24.984Z,101523.14
2019-01-09T19:25:55.711Z,101520.98
2019-01-09T19:28:26.195Z,101524.00
2019-01-09T19:30:56.856Z,101527.88
2019-01-09T19:33:27.664Z,101527.47
2019-01-09T19:35:58.167Z,101530.86
2019-01-09T19:38:28.606Z,101535.58
2019-01-09T19:40:59.767Z,101541.61
2019-01-09T19:43:30.646Z,101537.28
2019-01-09T19:46:01.677Z,101534.61
2019-01-09T19:48:32.471Z,101537.69
2019-01-09T19:51:02.994Z,101536.42
2019-01-09T19:53:33.466Z,101535.53
2019-01-09T19:56:03.937Z,101528.98
2019-01-09T19:58:34.427Z,101544.33
2019-01-09T20:01:04.909Z,101542.96
2019-01-09T20:03:35.676Z,101542.14
2019-01-09T20:06:06.975Z,101553.61
2019-01-09T20:08:37.897Z,101555.30
2019-01-09T20:11:08.907Z,101551.91
2019-01-09T20:13:39.458Z,101546.77
2019-01-09T20:16:10.063Z,101562.59
2019-01-09T20:18:41.231Z,101562.89
2019-01-09T20:21:12.291Z,101565.92
2019-01-09T20:23:42.968Z,101560.64
2019-01-09T20:26:13.770Z,101567.83
2019-01-09T20:28:44.735Z,101571.20
2019-01-09T20:31:15.736Z,101575.96
2019-01-09T20:33:46.544Z,101575.48
2019-01-09T20:36:17.234Z,101578.80
2019-01-09T20:38:47.733Z,101579.32
2019-01-09T20:41:18.265Z,101586.48
2019-01-09T20:43:49.139Z,101583.92
2019-01-09T20:46:19.734Z,101589.46
2019-01-09T20:48:50.355Z,101584.66
2019-01-09T20:51:21.194Z,101588.03
2019-01-09T20:53:51.985Z,101593.26
2019-01-09T20:56:22.619Z,101598.72
2019-01-09T20:58:53.498Z,101606.37
2019-01-09T21:01:24.092Z,101609.73
2019-01-09T21:03:55.089Z,101613.93
2019-01-09T21:06:25.601Z,101616.48
2019-01-09T21:08:59.759Z,101616.56
2019-01-09T21:11:28.551Z,101622.98
2019-01-09T21:13:59.178Z,101619.66
2019-01-09T21:16:29.686Z,101620.91
2019-01-09T21:19:00.284Z,101627.31
2019-01-09T21:21:30.891Z,101624.74
2019-01-09T21:24:01.726Z,101621.28
2019-01-09T21:26:32.385Z,101621.20
2019-01-09T21:29:03.195Z,101624.45
2019-01-09T21:31:33.726Z,101629.97
2019-01-09T21:34:04.407Z,101624.76
2019-01-09T21:36:35.422Z,101632.38
2019-01-09T21:39:09.505Z,101636.97
2019-01-09T21:41:40.144Z,101638.63
2019-01-09T21:44:15.926Z,101643.66
2019-01-09T21:46:46.372Z,101644.01
2019-01-09T21:49:15.575Z,101646.16
2019-01-09T21:51:46.591Z,101647.79
2019-01-09T21:54:17.254Z,101643.58
2019-01-09T21:56:47.852Z,101651.28
2019-01-09T21:59:18.563Z,101651.64
2019-01-09T22:01:49.164Z,101654.20
2019-01-09T22:04:19.785Z,101657.13
2019-01-09T22:06:50.465Z,101663.55
2019-01-09T22:09:21.520Z,101675.94
2019-01-09T22:11:52.127Z,101681.86
2019-01-09T22:14:22.622Z,101688.68
2019-01-09T22:16:53.647Z,101688.56
2019-01-09T22:19:24.393Z,101691.14
2019-01-09T22:21:54.913Z,101690.92
2019-01-09T22:24:25.691Z,101695.09
2019-01-09T22:26:56.281Z,101690.17
2019-01-09T22:29:26.876Z,101694.72
2019-01-09T22:31:57.324Z,101696.25
2019-01-09T22:34:27.769Z,101692.23
2019-01-09T22:36:58.214Z,101694.80
2019-01-09T22:39:28.699Z,101691.16
2019-01-09T22:41:59.148Z,101696.67
2019-01-09T22:44:29.607Z,101700.44
2019-01-09T22:47:00.107Z,101704.27
2019-01-09T22:49:30.899Z,101703.31
2019-01-09T22:52:01.669Z,101702.77
2019-01-09T22:54:36.939Z,101710.00
2019-01-09T22:57:04.585Z,101719.05
2019-01-09T22:59:35.043Z,101724.80
2019-01-09T23:02:06.598Z,101727.16
2019-01-09T23:04:37.149Z,101724.47
2019-01-09T23:07:07.873Z,101718.55
2019-01-09T23:09:38.380Z,101718.55
2019-01-09T23:12:09.210Z,101714.20
2019-01-09T23:14:39.716Z,101718.08
2019-01-09T23:17:10.194Z,101724.47
2019-01-09T23:19:40.720Z,101727.44
2019-01-09T23:22:11.175Z,101722.22
2019-01-09T23:24:41.666Z,101722.20
2019-01-09T23:27:12.282Z,101722.47
2019-01-09T23:29:42.780Z,101725.42
2019-01-09T23:32:13.204Z,101725.85
2019-01-09T23:38:14.987Z,101722.45
2019-01-09T23:41:04.806Z,101730.88
2019-01-09T23:43:47.009Z,101732.89
2019-01-09T23:46:17.513Z,101731.44
2019-01-09T23:48:47.972Z,101739.45
2019-01-09T23:51:18.433Z,101739.59
2019-01-09T23:53:49.144Z,101739.42
2019-01-09T23:56:19.605Z,101745.07
2019-01-09T23:58:50.095Z,101751.59
